sensor_id;sensor_type;location;lat;lon;timestamp;P1;durP1;ratioP1;P2;durP2;ratioP2
27977;SDS011;15314;49.248;6.968;2023-02-28T00:00:21;7.57;;;7.07;;
27977;SDS011;15314;49.248;6.968;2023-02-28T00:01:22;7.05;;;6.75;;
27977;SDS011;15314;49.248;6.968;2023-02-28T00:02:23;7.05;;;6.65;;
27977;SDS011;15314;49.248;6.968;2023-02-28T00:03:24;7.28;;;6.88;;
27977;SDS011;15314;49.248;6.968;2023-02-28T00:04:24;7.28;;;6.88;;
27977;SDS011;15314;49.248;6.968;2023-02-28T00:05:25;6.90;;;6.60;;
27977;SDS011;15314;49.248;6.968;2023-02-28T00:06:27;7.53;;;7.13;;
27977;SDS011;15314;49.248;6.968;2023-02-28T00:07:29;7.53;;;7.03;;
27977;SDS011;15314;49.248;6.968;2023-02-28T00:08:30;7.53;;;7.13;;
27977;SDS011;15314;49.248;6.968;2023-02-28T00:09:31;6.93;;;6.60;;
27977;SDS011;15314;49.248;6.968;2023-02-28T00:10:32;7.32;;;6.95;;
27977;SDS011;15314;49.248;6.968;2023-02-28T00:11:32;7.63;;;6.93;;
27977;SDS011;15314;49.248;6.968;2023-02-28T00:12:34;6.75;;;6.45;;
27977;SDS011;15314;49.248;6.968;2023-02-28T00:13:35;16.98;;;15.23;;
27977;SDS011;15314;49.248;6.968;2023-02-28T00:14:37;15.32;;;13.93;;
27977;SDS011;15314;49.248;6.968;2023-02-28T00:15:38;7.50;;;6.95;;
27977;SDS011;15314;49.248;6.968;2023-02-28T00:16:38;7.20;;;6.80;;
27977;SDS011;15314;49.248;6.968;2023-02-28T00:17:39;7.03;;;6.63;;
27977;SDS011;15314;49.248;6.968;2023-02-28T00:18:40;7.10;;;6.70;;
27977;SDS011;15314;49.248;6.968;2023-02-28T00:19:40;7.05;;;6.70;;
27977;SDS011;15314;49.248;6.968;2023-02-28T00:20:41;7.00;;;6.55;;
27977;SDS011;15314;49.248;6.968;2023-02-28T00:21:42;7.50;;;7.10;;
27977;SDS011;15314;49.248;6.968;2023-02-28T00:22:44;6.75;;;6.45;;
27977;SDS011;15314;49.248;6.968;2023-02-28T00:23:47;6.90;;;6.50;;
27977;SDS011;15314;49.248;6.968;2023-02-28T00:24:48;7.22;;;6.72;;
27977;SDS011;15314;49.248;6.968;2023-02-28T00:25:48;6.75;;;6.45;;
27977;SDS011;15314;49.248;6.968;2023-02-28T00:26:50;6.60;;;6.30;;
27977;SDS011;15314;49.248;6.968;2023-02-28T00:27:51;7.05;;;6.65;;
27977;SDS011;15314;49.248;6.968;2023-02-28T00:28:52;6.32;;;6.03;;
27977;SDS011;15314;49.248;6.968;2023-02-28T00:29:53;6.95;;;6.55;;
27977;SDS011;15314;49.248;6.968;2023-02-28T00:30:54;6.70;;;6.35;;
27977;SDS011;15314;49.248;6.968;2023-02-28T00:31:54;6.47;;;6.03;;
27977;SDS011;15314;49.248;6.968;2023-02-28T00:32:55;6.80;;;6.40;;
27977;SDS011;15314;49.248;6.968;2023-02-28T00:33:55;7.00;;;6.60;;
27977;SDS011;15314;49.248;6.968;2023-02-28T00:34:56;6.68;;;6.28;;
27977;SDS011;15314;49.248;6.968;2023-02-28T00:36:04;7.60;;;7.10;;
27977;SDS011;15314;49.248;6.968;2023-02-28T00:37:06;7.68;;;7.18;;
27977;SDS011;15314;49.248;6.968;2023-02-28T00:38:09;7.18;;;6.68;;
27977;SDS011;15314;49.248;6.968;2023-02-28T00:39:10;6.82;;;6.43;;
27977;SDS011;15314;49.248;6.968;2023-02-28T00:40:11;6.97;;;6.68;;
27977;SDS011;15314;49.248;6.968;2023-02-28T00:41:12;6.68;;;6.20;;
27977;SDS011;15314;49.248;6.968;2023-02-28T00:42:13;7.50;;;7.10;;
27977;SDS011;15314;49.248;6.968;2023-02-28T00:43:13;7.28;;;6.88;;
27977;SDS011;15314;49.248;6.968;2023-02-28T00:44:14;7.20;;;6.72;;
27977;SDS011;15314;49.248;6.968;2023-02-28T00:45:15;6.82;;;6.53;;
27977;SDS011;15314;49.248;6.968;2023-02-28T00:46:15;7.45;;;6.95;;
27977;SDS011;15314;49.248;6.968;2023-02-28T00:47:16;7.13;;;6.72;;
27977;SDS011;15314;49.248;6.968;2023-02-28T00:48:16;7.00;;;6.70;;
27977;SDS011;15314;49.248;6.968;2023-02-28T00:49:17;7.57;;;6.93;;
27977;SDS011;15314;49.248;6.968;2023-02-28T00:50:19;7.38;;;6.97;;
27977;SDS011;15314;49.248;6.968;2023-02-28T00:51:20;7.65;;;7.05;;
27977;SDS011;15314;49.248;6.968;2023-02-28T00:52:20;7.53;;;7.13;;
27977;SDS011;15314;49.248;6.968;2023-02-28T00:53:21;7.50;;;7.10;;
27977;SDS011;15314;49.248;6.968;2023-02-28T00:54:22;7.15;;;6.85;;
27977;SDS011;15314;49.248;6.968;2023-02-28T00:55:23;7.60;;;7.20;;
27977;SDS011;15314;49.248;6.968;2023-02-28T00:56:24;7.60;;;7.20;;
27977;SDS011;15314;49.248;6.968;2023-02-28T00:57:24;7.70;;;7.20;;
27977;SDS011;15314;49.248;6.968;2023-02-28T00:58:26;7.65;;;7.15;;
27977;SDS011;15314;49.248;6.968;2023-02-28T00:59:27;7.55;;;6.90;;
27977;SDS011;15314;49.248;6.968;2023-02-28T01:00:27;7.15;;;6.85;;
27977;SDS011;15314;49.248;6.968;2023-02-28T01:01:28;7.65;;;7.25;;
27977;SDS011;15314;49.248;6.968;2023-02-28T01:02:28;7.05;;;6.63;;
27977;SDS011;15314;49.248;6.968;2023-02-28T01:03:29;6.75;;;6.45;;
27977;SDS011;15314;49.248;6.968;2023-02-28T01:04:30;7.18;;;6.78;;
27977;SDS011;15314;49.248;6.968;2023-02-28T01:05:30;6.78;;;6.47;;
27977;SDS011;15314;49.248;6.968;2023-02-28T01:06:31;6.63;;;6.22;;
27977;SDS011;15314;49.248;6.968;2023-02-28T01:07:32;6.88;;;6.40;;
27977;SDS011;15314;49.248;6.968;2023-02-28T01:08:32;6.80;;;6.47;;
27977;SDS011;15314;49.248;6.968;2023-02-28T01:09:33;7.22;;;6.82;;
27977;SDS011;15314;49.248;6.968;2023-02-28T01:10:34;7.20;;;6.80;;
27977;SDS011;15314;49.248;6.968;2023-02-28T01:11:36;6.70;;;6.40;;
27977;SDS011;15314;49.248;6.968;2023-02-28T01:12:37;7.30;;;6.90;;
27977;SDS011;15314;49.248;6.968;2023-02-28T01:13:38;7.18;;;6.78;;
27977;SDS011;15314;49.248;6.968;2023-02-28T01:14:39;7.10;;;6.70;;
27977;SDS011;15314;49.248;6.968;2023-02-28T01:15:41;7.43;;;6.93;;
27977;SDS011;15314;49.248;6.968;2023-02-28T01:16:46;7.28;;;6.85;;
27977;SDS011;15314;49.248;6.968;2023-02-28T01:17:47;7.05;;;6.75;;
27977;SDS011;15314;49.248;6.968;2023-02-28T01:18:47;7.10;;;6.70;;
27977;SDS011;15314;49.248;6.968;2023-02-28T01:19:48;7.57;;;7.15;;
27977;SDS011;15314;49.248;6.968;2023-02-28T01:20:49;7.43;;;7.03;;
27977;SDS011;15314;49.248;6.968;2023-02-28T01:21:51;6.72;;;6.40;;
27977;SDS011;15314;49.248;6.968;2023-02-28T01:22:52;7.35;;;6.95;;
27977;SDS011;15314;49.248;6.968;2023-02-28T01:23:52;7.53;;;7.13;;
27977;SDS011;15314;49.248;6.968;2023-02-28T01:24:56;7.32;;;6.93;;
27977;SDS011;15314;49.248;6.968;2023-02-28T01:25:57;7.13;;;6.75;;
27977;SDS011;15314;49.248;6.968;2023-02-28T01:26:57;7.43;;;7.03;;
27977;SDS011;15314;49.248;6.968;2023-02-28T01:27:58;7.50;;;7.10;;
27977;SDS011;15314;49.248;6.968;2023-02-28T01:28:58;7.03;;;6.72;;
27977;SDS011;15314;49.248;6.968;2023-02-28T01:29:59;7.85;;;7.45;;
27977;SDS011;15314;49.248;6.968;2023-02-28T01:31:00;7.05;;;6.75;;
27977;SDS011;15314;49.248;6.968;2023-02-28T01:32:00;8.25;;;7.65;;
27977;SDS011;15314;49.248;6.968;2023-02-28T01:33:01;7.60;;;7.00;;
27977;SDS011;15314;49.248;6.968;2023-02-28T01:34:02;7.22;;;6.82;;
27977;SDS011;15314;49.248;6.968;2023-02-28T01:35:03;7.40;;;7.00;;
27977;SDS011;15314;49.248;6.968;2023-02-28T01:36:05;7.30;;;6.78;;
27977;SDS011;15314;49.248;6.968;2023-02-28T01:37:09;7.18;;;6.78;;
27977;SDS011;15314;49.248;6.968;2023-02-28T01:38:09;7.30;;;6.95;;
27977;SDS011;15314;49.248;6.968;2023-02-28T01:39:10;7.40;;;7.00;;
27977;SDS011;15314;49.248;6.968;2023-02-28T01:40:13;7.05;;;6.70;;
27977;SDS011;15314;49.248;6.968;2023-02-28T01:41:21;6.95;;;6.65;;
27977;SDS011;15314;49.248;6.968;2023-02-28T01:42:28;7.57;;;7.07;;
27977;SDS011;15314;49.248;6.968;2023-02-28T01:43:30;6.70;;;6.30;;
27977;SDS011;15314;49.248;6.968;2023-02-28T01:45:57;7.50;;;7.00;;
27977;SDS011;15314;49.248;6.968;2023-02-28T01:46:58;7.05;;;6.72;;
27977;SDS011;15314;49.248;6.968;2023-02-28T01:48:04;7.47;;;7.07;;
27977;SDS011;15314;49.248;6.968;2023-02-28T01:49:14;7.65;;;7.25;;
27977;SDS011;15314;49.248;6.968;2023-02-28T01:50:18;7.40;;;7.00;;
27977;SDS011;15314;49.248;6.968;2023-02-28T01:51:26;7.72;;;7.32;;
27977;SDS011;15314;49.248;6.968;2023-02-28T01:52:34;7.60;;;7.18;;
27977;SDS011;15314;49.248;6.968;2023-02-28T01:53:36;7.60;;;7.20;;
27977;SDS011;15314;49.248;6.968;2023-02-28T01:54:41;8.38;;;7.88;;
27977;SDS011;15314;49.248;6.968;2023-02-28T01:55:43;7.28;;;6.88;;
27977;SDS011;15314;49.248;6.968;2023-02-28T01:56:55;7.53;;;7.13;;
27977;SDS011;15314;49.248;6.968;2023-02-28T01:58:00;7.70;;;7.35;;
27977;SDS011;15314;49.248;6.968;2023-02-28T01:59:02;7.85;;;7.40;;
27977;SDS011;15314;49.248;6.968;2023-02-28T02:01:13;7.60;;;7.20;;
27977;SDS011;15314;49.248;6.968;2023-02-28T02:02:21;6.88;;;6.50;;
27977;SDS011;15314;49.248;6.968;2023-02-28T02:03:24;7.97;;;7.55;;
27977;SDS011;15314;49.248;6.968;2023-02-28T02:04:26;8.05;;;7.50;;
27977;SDS011;15314;49.248;6.968;2023-02-28T02:05:46;7.65;;;7.18;;
27977;SDS011;15314;49.248;6.968;2023-02-28T02:06:47;8.13;;;7.63;;
27977;SDS011;15314;49.248;6.968;2023-02-28T02:07:50;7.90;;;7.38;;
27977;SDS011;15314;49.248;6.968;2023-02-28T02:08:54;7.47;;;7.07;;
27977;SDS011;15314;49.248;6.968;2023-02-28T02:10:03;8.00;;;7.60;;
27977;SDS011;15314;49.248;6.968;2023-02-28T02:11:07;7.85;;;7.35;;
27977;SDS011;15314;49.248;6.968;2023-02-28T02:12:55;8.00;;;7.50;;
27977;SDS011;15314;49.248;6.968;2023-02-28T02:13:52;7.55;;;7.15;;
27977;SDS011;15314;49.248;6.968;2023-02-28T02:15:12;7.07;;;6.78;;
27977;SDS011;15314;49.248;6.968;2023-02-28T02:17:39;7.30;;;6.90;;
27977;SDS011;15314;49.248;6.968;2023-02-28T02:18:43;7.60;;;7.20;;
27977;SDS011;15314;49.248;6.968;2023-02-28T02:23:43;7.88;;;7.35;;
27977;SDS011;15314;49.248;6.968;2023-02-28T02:29:13;7.82;;;7.43;;
27977;SDS011;15314;49.248;6.968;2023-02-28T02:30:43;7.97;;;7.47;;
27977;SDS011;15314;49.248;6.968;2023-02-28T02:41:56;8.25;;;7.85;;
27977;SDS011;15314;49.248;6.968;2023-02-28T02:43:01;9.10;;;8.50;;
27977;SDS011;15314;49.248;6.968;2023-02-28T02:44:20;8.98;;;8.40;;
27977;SDS011;15314;49.248;6.968;2023-02-28T02:45:25;8.93;;;8.43;;
27977;SDS011;15314;49.248;6.968;2023-02-28T02:46:37;9.02;;;8.48;;
27977;SDS011;15314;49.248;6.968;2023-02-28T02:47:43;7.90;;;7.40;;
27977;SDS011;15314;49.248;6.968;2023-02-28T02:48:45;8.35;;;7.85;;
27977;SDS011;15314;49.248;6.968;2023-02-28T02:49:48;8.23;;;7.82;;
27977;SDS011;15314;49.248;6.968;2023-02-28T02:50:54;7.55;;;7.13;;
27977;SDS011;15314;49.248;6.968;2023-02-28T02:51:56;7.25;;;6.85;;
27977;SDS011;15314;49.248;6.968;2023-02-28T02:53:02;8.25;;;7.60;;
27977;SDS011;15314;49.248;6.968;2023-02-28T02:54:08;7.07;;;6.78;;
27977;SDS011;15314;49.248;6.968;2023-02-28T02:55:18;8.02;;;7.53;;
27977;SDS011;15314;49.248;6.968;2023-02-28T02:56:23;7.72;;;7.22;;
27977;SDS011;15314;49.248;6.968;2023-02-28T02:57:30;7.57;;;7.18;;
27977;SDS011;15314;49.248;6.968;2023-02-28T02:58:40;7.97;;;7.40;;
27977;SDS011;15314;49.248;6.968;2023-02-28T02:59:42;7.40;;;7.00;;
27977;SDS011;15314;49.248;6.968;2023-02-28T03:00:45;7.55;;;7.13;;
27977;SDS011;15314;49.248;6.968;2023-02-28T03:01:51;7.85;;;7.35;;
27977;SDS011;15314;49.248;6.968;2023-02-28T03:02:55;7.28;;;6.88;;
27977;SDS011;15314;49.248;6.968;2023-02-28T03:03:57;7.30;;;6.85;;
27977;SDS011;15314;49.248;6.968;2023-02-28T03:05:02;8.07;;;7.53;;
27977;SDS011;15314;49.248;6.968;2023-02-28T03:06:08;7.43;;;7.03;;
27977;SDS011;15314;49.248;6.968;2023-02-28T03:07:08;7.82;;;7.38;;
27977;SDS011;15314;49.248;6.968;2023-02-28T03:08:09;7.45;;;7.05;;
27977;SDS011;15314;49.248;6.968;2023-02-28T03:09:10;8.18;;;7.70;;
27977;SDS011;15314;49.248;6.968;2023-02-28T03:10:30;8.25;;;7.75;;
27977;SDS011;15314;49.248;6.968;2023-02-28T03:11:36;8.20;;;7.80;;
27977;SDS011;15314;49.248;6.968;2023-02-28T03:12:46;7.63;;;7.18;;
27977;SDS011;15314;49.248;6.968;2023-02-28T03:15:32;8.40;;;7.90;;
27977;SDS011;15314;49.248;6.968;2023-02-28T03:18:08;8.27;;;7.70;;
27977;SDS011;15314;49.248;6.968;2023-02-28T03:19:43;8.20;;;7.78;;
27977;SDS011;15314;49.248;6.968;2023-02-28T03:23:53;8.45;;;7.90;;
27977;SDS011;15314;49.248;6.968;2023-02-28T03:26:17;8.57;;;7.95;;
27977;SDS011;15314;49.248;6.968;2023-02-28T03:27:28;7.90;;;7.50;;
27977;SDS011;15314;49.248;6.968;2023-02-28T03:28:37;8.40;;;7.85;;
27977;SDS011;15314;49.248;6.968;2023-02-28T03:30:01;7.78;;;7.28;;
27977;SDS011;15314;49.248;6.968;2023-02-28T03:31:15;8.57;;;8.18;;
27977;SDS011;15314;49.248;6.968;2023-02-28T03:32:27;8.38;;;7.88;;
27977;SDS011;15314;49.248;6.968;2023-02-28T03:33:36;8.50;;;8.00;;
27977;SDS011;15314;49.248;6.968;2023-02-28T03:36:26;8.02;;;7.63;;
27977;SDS011;15314;49.248;6.968;2023-02-28T03:37:29;8.70;;;8.10;;
27977;SDS011;15314;49.248;6.968;2023-02-28T03:38:38;8.88;;;8.27;;
27977;SDS011;15314;49.248;6.968;2023-02-28T03:39:51;8.05;;;7.65;;
27977;SDS011;15314;49.248;6.968;2023-02-28T03:41:05;8.57;;;8.07;;
27977;SDS011;15314;49.248;6.968;2023-02-28T03:42:14;8.50;;;8.00;;
27977;SDS011;15314;49.248;6.968;2023-02-28T03:43:22;8.25;;;7.75;;
27977;SDS011;15314;49.248;6.968;2023-02-28T03:44:32;8.48;;;7.95;;
27977;SDS011;15314;49.248;6.968;2023-02-28T03:45:39;8.07;;;7.65;;
27977;SDS011;15314;49.248;6.968;2023-02-28T03:46:45;8.57;;;8.07;;
27977;SDS011;15314;49.248;6.968;2023-02-28T03:47:53;8.68;;;8.18;;
27977;SDS011;15314;49.248;6.968;2023-02-28T03:48:55;8.43;;;7.93;;
27977;SDS011;15314;49.248;6.968;2023-02-28T03:50:19;8.98;;;8.48;;
27977;SDS011;15314;49.248;6.968;2023-02-28T03:51:24;8.65;;;8.23;;
27977;SDS011;15314;49.248;6.968;2023-02-28T03:52:29;9.00;;;8.50;;
27977;SDS011;15314;49.248;6.968;2023-02-28T03:53:35;8.80;;;8.20;;
27977;SDS011;15314;49.248;6.968;2023-02-28T03:54:44;8.77;;;8.13;;
27977;SDS011;15314;49.248;6.968;2023-02-28T03:55:48;8.63;;;8.13;;
27977;SDS011;15314;49.248;6.968;2023-02-28T03:57:15;9.15;;;8.55;;
27977;SDS011;15314;49.248;6.968;2023-02-28T04:00:07;8.70;;;8.10;;
27977;SDS011;15314;49.248;6.968;2023-02-28T04:02:16;8.75;;;8.15;;
27977;SDS011;15314;49.248;6.968;2023-02-28T04:03:18;8.75;;;7.90;;
27977;SDS011;15314;49.248;6.968;2023-02-28T04:04:19;8.80;;;8.20;;
27977;SDS011;15314;49.248;6.968;2023-02-28T04:05:20;8.30;;;7.82;;
27977;SDS011;15314;49.248;6.968;2023-02-28T04:06:22;8.45;;;7.85;;
27977;SDS011;15314;49.248;6.968;2023-02-28T04:07:23;7.95;;;7.55;;
27977;SDS011;15314;49.248;6.968;2023-02-28T04:08:24;8.90;;;8.40;;
27977;SDS011;15314;49.248;6.968;2023-02-28T04:09:25;9.55;;;8.75;;
27977;SDS011;15314;49.248;6.968;2023-02-28T04:10:25;8.40;;;7.90;;
27977;SDS011;15314;49.248;6.968;2023-02-28T04:11:33;8.35;;;7.95;;
27977;SDS011;15314;49.248;6.968;2023-02-28T04:12:36;8.43;;;7.93;;
27977;SDS011;15314;49.248;6.968;2023-02-28T04:13:36;8.60;;;7.95;;
27977;SDS011;15314;49.248;6.968;2023-02-28T04:14:37;8.10;;;7.60;;
27977;SDS011;15314;49.248;6.968;2023-02-28T04:15:38;8.73;;;8.20;;
27977;SDS011;15314;49.248;6.968;2023-02-28T04:16:39;8.65;;;8.00;;
27977;SDS011;15314;49.248;6.968;2023-02-28T04:17:41;8.57;;;7.97;;
27977;SDS011;15314;49.248;6.968;2023-02-28T04:18:42;9.18;;;8.48;;
27977;SDS011;15314;49.248;6.968;2023-02-28T04:19:43;9.48;;;8.77;;
27977;SDS011;15314;49.248;6.968;2023-02-28T04:20:44;9.18;;;8.57;;
27977;SDS011;15314;49.248;6.968;2023-02-28T04:21:46;8.77;;;8.18;;
27977;SDS011;15314;49.248;6.968;2023-02-28T04:22:48;8.75;;;8.25;;
27977;SDS011;15314;49.248;6.968;2023-02-28T04:23:48;8.52;;;8.02;;
27977;SDS011;15314;49.248;6.968;2023-02-28T04:24:49;8.15;;;7.65;;
27977;SDS011;15314;49.248;6.968;2023-02-28T04:25:49;8.32;;;7.82;;
27977;SDS011;15314;49.248;6.968;2023-02-28T04:26:52;9.05;;;8.25;;
27977;SDS011;15314;49.248;6.968;2023-02-28T04:27:55;8.75;;;8.15;;
27977;SDS011;15314;49.248;6.968;2023-02-28T04:28:55;8.52;;;8.02;;
27977;SDS011;15314;49.248;6.968;2023-02-28T04:29:56;8.60;;;7.95;;
27977;SDS011;15314;49.248;6.968;2023-02-28T04:30:57;9.07;;;8.50;;
27977;SDS011;15314;49.248;6.968;2023-02-28T04:32:04;8.38;;;7.78;;
27977;SDS011;15314;49.248;6.968;2023-02-28T04:33:04;8.98;;;8.48;;
27977;SDS011;15314;49.248;6.968;2023-02-28T04:34:05;9.05;;;8.55;;
27977;SDS011;15314;49.248;6.968;2023-02-28T04:35:06;9.02;;;8.45;;
27977;SDS011;15314;49.248;6.968;2023-02-28T04:36:07;8.55;;;8.05;;
27977;SDS011;15314;49.248;6.968;2023-02-28T04:37:08;8.98;;;8.35;;
27977;SDS011;15314;49.248;6.968;2023-02-28T04:38:09;8.70;;;8.20;;
27977;SDS011;15314;49.248;6.968;2023-02-28T04:39:10;10.18;;;9.48;;
27977;SDS011;15314;49.248;6.968;2023-02-28T04:40:10;9.05;;;8.45;;
27977;SDS011;15314;49.248;6.968;2023-02-28T04:41:15;9.75;;;9.02;;
27977;SDS011;15314;49.248;6.968;2023-02-28T04:42:15;9.20;;;8.60;;
27977;SDS011;15314;49.248;6.968;2023-02-28T04:43:16;9.82;;;9.07;;
27977;SDS011;15314;49.248;6.968;2023-02-28T04:44:17;8.90;;;8.30;;
27977;SDS011;15314;49.248;6.968;2023-02-28T04:45:17;10.73;;;9.60;;
27977;SDS011;15314;49.248;6.968;2023-02-28T04:46:18;13.15;;;11.95;;
27977;SDS011;15314;49.248;6.968;2023-02-28T04:47:19;10.25;;;9.55;;
27977;SDS011;15314;49.248;6.968;2023-02-28T04:48:20;8.63;;;8.02;;
27977;SDS011;15314;49.248;6.968;2023-02-28T04:49:21;9.07;;;8.48;;
27977;SDS011;15314;49.248;6.968;2023-02-28T04:50:21;9.80;;;9.20;;
27977;SDS011;15314;49.248;6.968;2023-02-28T04:51:22;9.57;;;8.93;;
27977;SDS011;15314;49.248;6.968;2023-02-28T04:52:22;8.60;;;7.95;;
27977;SDS011;15314;49.248;6.968;2023-02-28T04:53:23;8.35;;;7.85;;
27977;SDS011;15314;49.248;6.968;2023-02-28T04:54:24;9.02;;;8.50;;
27977;SDS011;15314;49.248;6.968;2023-02-28T04:55:24;9.75;;;9.00;;
27977;SDS011;15314;49.248;6.968;2023-02-28T04:56:25;9.18;;;8.57;;
27977;SDS011;15314;49.248;6.968;2023-02-28T04:57:25;9.45;;;8.77;;
27977;SDS011;15314;49.248;6.968;2023-02-28T04:58:26;8.70;;;8.07;;
27977;SDS011;15314;49.248;6.968;2023-02-28T04:59:28;8.63;;;8.13;;
27977;SDS011;15314;49.248;6.968;2023-02-28T05:00:28;8.70;;;8.20;;
27977;SDS011;15314;49.248;6.968;2023-02-28T05:01:32;12.55;;;11.43;;
27977;SDS011;15314;49.248;6.968;2023-02-28T05:02:34;8.77;;;8.18;;
27977;SDS011;15314;49.248;6.968;2023-02-28T05:03:35;12.23;;;11.02;;
27977;SDS011;15314;49.248;6.968;2023-02-28T05:04:36;9.00;;;8.40;;
27977;SDS011;15314;49.248;6.968;2023-02-28T05:05:36;9.05;;;8.45;;
27977;SDS011;15314;49.248;6.968;2023-02-28T05:06:37;9.45;;;8.65;;
27977;SDS011;15314;49.248;6.968;2023-02-28T05:07:38;9.27;;;8.77;;
27977;SDS011;15314;49.248;6.968;2023-02-28T05:08:38;8.55;;;7.95;;
27977;SDS011;15314;49.248;6.968;2023-02-28T05:09:40;9.05;;;8.45;;
27977;SDS011;15314;49.248;6.968;2023-02-28T05:10:41;9.38;;;8.73;;
27977;SDS011;15314;49.248;6.968;2023-02-28T05:11:42;8.65;;;8.02;;
27977;SDS011;15314;49.248;6.968;2023-02-28T05:12:43;9.10;;;8.50;;
27977;SDS011;15314;49.248;6.968;2023-02-28T05:13:44;9.23;;;8.52;;
27977;SDS011;15314;49.248;6.968;2023-02-28T05:14:45;9.02;;;8.43;;
27977;SDS011;15314;49.248;6.968;2023-02-28T05:15:45;8.43;;;7.93;;
27977;SDS011;15314;49.248;6.968;2023-02-28T05:16:46;9.13;;;8.52;;
27977;SDS011;15314;49.248;6.968;2023-02-28T05:17:47;10.23;;;9.43;;
27977;SDS011;15314;49.248;6.968;2023-02-28T05:18:47;8.88;;;8.27;;
27977;SDS011;15314;49.248;6.968;2023-02-28T05:19:48;9.13;;;8.57;;
27977;SDS011;15314;49.248;6.968;2023-02-28T05:20:48;9.52;;;8.93;;
27977;SDS011;15314;49.248;6.968;2023-02-28T05:21:50;8.77;;;8.27;;
27977;SDS011;15314;49.248;6.968;2023-02-28T05:22:53;9.80;;;9.20;;
27977;SDS011;15314;49.248;6.968;2023-02-28T05:23:54;9.45;;;8.85;;
27977;SDS011;15314;49.248;6.968;2023-02-28T05:24:56;9.77;;;9.07;;
27977;SDS011;15314;49.248;6.968;2023-02-28T05:25:56;9.32;;;8.73;;
27977;SDS011;15314;49.248;6.968;2023-02-28T05:26:57;9.70;;;8.90;;
27977;SDS011;15314;49.248;6.968;2023-02-28T05:27:58;8.85;;;8.25;;
27977;SDS011;15314;49.248;6.968;2023-02-28T05:28:59;9.15;;;8.35;;
27977;SDS011;15314;49.248;6.968;2023-02-28T05:29:59;9.30;;;8.60;;
27977;SDS011;15314;49.248;6.968;2023-02-28T05:31:03;9.93;;;9.23;;
27977;SDS011;15314;49.248;6.968;2023-02-28T05:32:04;9.75;;;9.15;;
27977;SDS011;15314;49.248;6.968;2023-02-28T05:33:04;9.32;;;8.60;;
27977;SDS011;15314;49.248;6.968;2023-02-28T05:34:05;8.70;;;8.13;;
27977;SDS011;15314;49.248;6.968;2023-02-28T05:35:06;9.38;;;8.68;;
27977;SDS011;15314;49.248;6.968;2023-02-28T05:36:07;9.20;;;8.60;;
27977;SDS011;15314;49.248;6.968;2023-02-28T05:37:11;9.98;;;9.15;;
27977;SDS011;15314;49.248;6.968;2023-02-28T05:38:13;9.45;;;8.73;;
27977;SDS011;15314;49.248;6.968;2023-02-28T05:39:14;9.65;;;8.90;;
27977;SDS011;15314;49.248;6.968;2023-02-28T05:40:15;16.20;;;14.82;;
27977;SDS011;15314;49.248;6.968;2023-02-28T05:41:16;9.93;;;9.23;;
27977;SDS011;15314;49.248;6.968;2023-02-28T05:42:19;9.90;;;9.20;;
27977;SDS011;15314;49.248;6.968;2023-02-28T05:43:19;9.57;;;8.88;;
27977;SDS011;15314;49.248;6.968;2023-02-28T05:44:20;9.93;;;9.18;;
27977;SDS011;15314;49.248;6.968;2023-02-28T05:45:21;10.05;;;9.45;;
27977;SDS011;15314;49.248;6.968;2023-02-28T05:46:21;9.65;;;9.05;;
27977;SDS011;15314;49.248;6.968;2023-02-28T05:47:22;10.02;;;9.38;;
27977;SDS011;15314;49.248;6.968;2023-02-28T05:48:22;9.45;;;8.95;;
27977;SDS011;15314;49.248;6.968;2023-02-28T05:49:23;9.65;;;9.07;;
27977;SDS011;15314;49.248;6.968;2023-02-28T05:50:24;10.07;;;9.27;;
27977;SDS011;15314;49.248;6.968;2023-02-28T05:51:24;9.93;;;9.23;;
27977;SDS011;15314;49.248;6.968;2023-02-28T05:52:25;10.00;;;9.23;;
27977;SDS011;15314;49.248;6.968;2023-02-28T05:53:26;10.77;;;9.98;;
27977;SDS011;15314;49.248;6.968;2023-02-28T05:54:27;8.85;;;8.32;;
27977;SDS011;15314;49.248;6.968;2023-02-28T05:55:27;10.00;;;9.30;;
27977;SDS011;15314;49.248;6.968;2023-02-28T05:56:28;9.85;;;9.25;;
27977;SDS011;15314;49.248;6.968;2023-02-28T05:57:29;9.75;;;9.13;;
27977;SDS011;15314;49.248;6.968;2023-02-28T05:58:33;10.15;;;9.23;;
27977;SDS011;15314;49.248;6.968;2023-02-28T05:59:34;15.32;;;13.75;;
27977;SDS011;15314;49.248;6.968;2023-02-28T06:00:39;18.88;;;16.83;;
27977;SDS011;15314;49.248;6.968;2023-02-28T06:01:40;12.77;;;11.57;;
27977;SDS011;15314;49.248;6.968;2023-02-28T06:02:47;10.73;;;9.93;;
27977;SDS011;15314;49.248;6.968;2023-02-28T06:03:48;9.57;;;8.90;;
27977;SDS011;15314;49.248;6.968;2023-02-28T06:04:49;9.82;;;9.00;;
27977;SDS011;15314;49.248;6.968;2023-02-28T06:05:50;10.68;;;9.77;;
27977;SDS011;15314;49.248;6.968;2023-02-28T06:06:50;9.60;;;8.90;;
27977;SDS011;15314;49.248;6.968;2023-02-28T06:07:51;10.05;;;9.45;;
27977;SDS011;15314;49.248;6.968;2023-02-28T06:08:52;9.98;;;9.30;;
27977;SDS011;15314;49.248;6.968;2023-02-28T06:09:52;10.13;;;9.25;;
27977;SDS011;15314;49.248;6.968;2023-02-28T06:10:53;12.15;;;11.25;;
27977;SDS011;15314;49.248;6.968;2023-02-28T06:11:54;13.15;;;12.20;;
27977;SDS011;15314;49.248;6.968;2023-02-28T06:12:54;15.90;;;14.20;;
27977;SDS011;15314;49.248;6.968;2023-02-28T06:13:55;13.70;;;12.48;;
27977;SDS011;15314;49.248;6.968;2023-02-28T06:14:59;11.05;;;10.25;;
27977;SDS011;15314;49.248;6.968;2023-02-28T06:16:02;10.18;;;9.48;;
27977;SDS011;15314;49.248;6.968;2023-02-28T06:17:03;10.52;;;9.82;;
27977;SDS011;15314;49.248;6.968;2023-02-28T06:18:05;11.13;;;10.40;;
27977;SDS011;15314;49.248;6.968;2023-02-28T06:19:05;11.20;;;10.10;;
27977;SDS011;15314;49.248;6.968;2023-02-28T06:20:07;10.90;;;10.23;;
27977;SDS011;15314;49.248;6.968;2023-02-28T06:21:08;12.18;;;11.07;;
27977;SDS011;15314;49.248;6.968;2023-02-28T06:22:09;11.63;;;10.70;;
27977;SDS011;15314;49.248;6.968;2023-02-28T06:23:10;11.13;;;10.43;;
27977;SDS011;15314;49.248;6.968;2023-02-28T06:24:11;11.90;;;11.00;;
27977;SDS011;15314;49.248;6.968;2023-02-28T06:25:11;11.38;;;10.68;;
27977;SDS011;15314;49.248;6.968;2023-02-28T06:26:15;12.15;;;11.25;;
27977;SDS011;15314;49.248;6.968;2023-02-28T06:27:16;11.35;;;10.55;;
27977;SDS011;15314;49.248;6.968;2023-02-28T06:28:16;12.15;;;11.30;;
27977;SDS011;15314;49.248;6.968;2023-02-28T06:29:17;12.32;;;11.60;;
27977;SDS011;15314;49.248;6.968;2023-02-28T06:30:18;12.35;;;11.40;;
27977;SDS011;15314;49.248;6.968;2023-02-28T06:31:23;12.55;;;11.65;;
27977;SDS011;15314;49.248;6.968;2023-02-28T06:32:25;12.95;;;12.05;;
27977;SDS011;15314;49.248;6.968;2023-02-28T06:33:26;12.23;;;11.43;;
27977;SDS011;15314;49.248;6.968;2023-02-28T06:34:27;12.77;;;11.77;;
27977;SDS011;15314;49.248;6.968;2023-02-28T06:35:28;12.10;;;11.20;;
27977;SDS011;15314;49.248;6.968;2023-02-28T06:36:29;12.20;;;11.32;;
27977;SDS011;15314;49.248;6.968;2023-02-28T06:37:30;12.48;;;11.68;;
27977;SDS011;15314;49.248;6.968;2023-02-28T06:38:32;13.25;;;12.35;;
27977;SDS011;15314;49.248;6.968;2023-02-28T06:39:33;12.02;;;11.10;;
27977;SDS011;15314;49.248;6.968;2023-02-28T06:40:34;12.50;;;11.70;;
27977;SDS011;15314;49.248;6.968;2023-02-28T06:41:35;12.40;;;11.63;;
27977;SDS011;15314;49.248;6.968;2023-02-28T06:42:38;12.45;;;11.65;;
27977;SDS011;15314;49.248;6.968;2023-02-28T06:43:39;13.98;;;12.73;;
27977;SDS011;15314;49.248;6.968;2023-02-28T06:44:41;13.25;;;12.35;;
27977;SDS011;15314;49.248;6.968;2023-02-28T06:45:45;13.88;;;12.77;;
27977;SDS011;15314;49.248;6.968;2023-02-28T06:46:45;14.02;;;12.93;;
27977;SDS011;15314;49.248;6.968;2023-02-28T06:47:46;14.63;;;13.43;;
27977;SDS011;15314;49.248;6.968;2023-02-28T06:48:51;14.27;;;13.07;;
27977;SDS011;15314;49.248;6.968;2023-02-28T06:49:52;13.80;;;12.80;;
27977;SDS011;15314;49.248;6.968;2023-02-28T06:51:01;13.30;;;12.13;;
27977;SDS011;15314;49.248;6.968;2023-02-28T06:52:03;13.52;;;12.55;;